Time;durP1;ratioP1;P1;durP2;ratioP2;P2;SDS_P1;SDS_P2;PMS_P1;PMS_P2;Temp;Humidity;BMP_temperature;BMP_pressure;BME280_temperature;BME280_humidity;BME280_pressure;Samples;Min_cycle;Max_cycle;Signal;HPM_P1;HPM_P2
2023/08/25 00:01:52;;;;;;;7.60;4.90;;;27.30;56.20;;;;;;6151519;28;80881;-58
2023/08/25 00:04:52;;;;;;;11.82;5.43;;;27.20;56.20;;;;;;6151933;28;81684;-57
2023/08/25 00:07:53;;;;;;;8.15;5.00;;;27.20;55.50;;;;;;6152227;28;81248;-57
2023/08/25 00:10:53;;;;;;;11.07;5.18;;;27.00;55.30;;;;;;6151603;28;80884;-58
2023/08/25 00:13:54;;;;;;;9.32;5.13;;;27.00;55.60;;;;;;6146992;28;80672;-68
2023/08/25 00:16:55;;;;;;;6.97;5.13;;;27.00;55.80;;;;;;6151712;28;81043;-68
2023/08/25 00:19:55;;;;;;;7.13;5.20;;;27.10;55.70;;;;;;6151522;28;80228;-66
2023/08/25 00:22:57;;;;;;;8.95;5.20;;;27.10;55.70;;;;;;6151626;28;80633;-66
2023/08/25 00:25:57;;;;;;;11.15;5.63;;;27.10;55.50;;;;;;6151280;28;80244;-66
2023/08/25 00:28:58;;;;;;;10.50;5.45;;;27.20;55.60;;;;;;6151339;28;83069;-65
2023/08/25 00:31:59;;;;;;;10.23;5.95;;;27.20;55.70;;;;;;6146046;28;80424;-64
2023/08/25 00:35:01;;;;;;;7.32;5.05;;;27.20;55.50;;;;;;6165583;28;83529;-62
2023/08/25 00:38:01;;;;;;;10.02;5.85;;;27.20;55.50;;;;;;6149629;28;80507;-63
2023/08/25 00:41:02;;;;;;;9.35;5.80;;;27.20;55.40;;;;;;6151002;28;80692;-66
2023/08/25 00:44:02;;;;;;;8.52;5.47;;;27.20;55.60;;;;;;6151097;28;80647;-63
2023/08/25 00:47:03;;;;;;;9.93;5.57;;;27.20;55.50;;;;;;6140996;28;83360;-65
2023/08/25 00:50:03;;;;;;;8.32;5.25;;;27.20;55.80;;;;;;6126168;28;81895;-66
2023/08/25 00:53:04;;;;;;;11.35;6.05;;;27.20;55.90;;;;;;6126194;28;81159;-65
2023/08/25 00:56:04;;;;;;;10.50;5.65;;;27.10;55.80;;;;;;6124876;28;83667;-65
2023/08/25 00:59:05;;;;;;;9.43;5.72;;;27.20;56.10;;;;;;6127150;28;81781;-64
2023/08/25 01:02:06;;;;;;;12.10;5.65;;;27.20;56.10;;;;;;6125193;28;82013;-65
2023/08/25 01:05:07;;;;;;;10.55;5.03;;;27.10;56.20;;;;;;6128869;28;80396;-65
2023/08/25 01:08:07;;;;;;;8.27;5.45;;;27.10;56.30;;;;;;6131614;28;81161;-55
2023/08/25 01:11:08;;;;;;;7.30;4.97;;;27.20;56.40;;;;;;6130670;28;81093;-54
2023/08/25 01:14:09;;;;;;;7.32;4.25;;;27.10;56.50;;;;;;6145824;28;82023;-55
2023/08/25 01:17:09;;;;;;;8.38;4.90;;;27.10;56.50;;;;;;6130078;28;80684;-54
2023/08/25 01:20:13;;;;;;;10.55;5.05;;;27.10;56.50;;;;;;6130856;28;82028;-53
2023/08/25 01:23:14;;;;;;;11.00;6.25;;;27.20;56.80;;;;;;6130298;28;80481;-55
2023/08/25 01:26:14;;;;;;;7.15;4.88;;;27.20;56.90;;;;;;6128126;28;80496;-57
2023/08/25 01:29:15;;;;;;;9.65;5.38;;;27.20;57.00;;;;;;6130908;28;80036;-60
2023/08/25 01:32:15;;;;;;;10.77;6.00;;;27.20;57.10;;;;;;6129126;28;83591;-58
2023/08/25 01:35:16;;;;;;;9.98;6.13;;;27.10;56.90;;;;;;6131360;28;80583;-60
2023/08/25 01:38:18;;;;;;;9.90;5.55;;;27.10;56.80;;;;;;6132082;28;81237;-60
2023/08/25 01:41:19;;;;;;;7.97;5.45;;;27.10;57.00;;;;;;6128343;28;83585;-58
2023/08/25 01:44:19;;;;;;;10.73;5.90;;;27.10;57.10;;;;;;6128989;28;83160;-58
2023/08/25 01:47:20;;;;;;;11.73;6.07;;;27.10;57.10;;;;;;6127826;28;83726;-58
2023/08/25 01:50:21;;;;;;;9.52;5.63;;;27.10;57.10;;;;;;6130253;28;81327;-59
2023/08/25 01:53:23;;;;;;;9.50;5.72;;;27.10;57.20;;;;;;6131784;28;83794;-59
2023/08/25 01:56:24;;;;;;;8.27;5.60;;;27.10;57.10;;;;;;6126962;28;83452;-60
2023/08/25 01:59:25;;;;;;;10.98;6.50;;;27.10;57.30;;;;;;6134898;28;83672;-58
2023/08/25 02:02:26;;;;;;;10.07;5.70;;;27.00;57.40;;;;;;6168783;28;83286;-59
2023/08/25 02:05:29;;;;;;;9.00;5.90;;;27.00;57.50;;;;;;6155331;28;80964;-59
2023/08/25 02:08:29;;;;;;;9.20;5.68;;;27.00;57.50;;;;;;6154490;28;80756;-57
2023/08/25 02:11:30;;;;;;;10.25;5.72;;;27.10;57.50;;;;;;6126818;28;83322;-58
2023/08/25 02:14:30;;;;;;;10.93;6.47;;;27.00;57.50;;;;;;6136136;28;81654;-58
2023/08/25 02:17:34;;;;;;;11.15;5.75;;;27.10;57.60;;;;;;6152674;28;80478;-59
2023/08/25 02:20:34;;;;;;;9.50;5.75;;;27.10;57.80;;;;;;6169354;28;83487;-57
2023/08/25 02:23:35;;;;;;;12.18;6.05;;;27.10;57.40;;;;;;6167228;28;80627;-54
2023/08/25 02:26:36;;;;;;;10.18;6.63;;;27.00;57.50;;;;;;6168780;28;83724;-54
2023/08/25 02:29:36;;;;;;;11.40;6.40;;;26.90;57.60;;;;;;6152372;28;83378;-57
2023/08/25 02:32:37;;;;;;;12.48;6.22;;;26.90;57.70;;;;;;6150456;28;82921;-54
2023/08/25 02:35:38;;;;;;;9.20;5.60;;;27.00;57.80;;;;;;6141070;28;81006;-55
2023/08/25 02:38:38;;;;;;;8.13;5.20;;;27.00;57.90;;;;;;6151793;28;80540;-54
2023/08/25 02:41:39;;;;;;;8.88;5.32;;;27.00;57.60;;;;;;6151658;28;81681;-54
2023/08/25 02:44:39;;;;;;;8.68;5.63;;;26.90;57.50;;;;;;6153026;28;81799;-54
2023/08/25 02:47:40;;;;;;;10.43;6.40;;;27.00;57.60;;;;;;6150399;28;81792;-55
2023/08/25 02:50:40;;;;;;;10.73;6.03;;;27.00;57.60;;;;;;6150872;28;81340;-55
2023/08/25 02:53:41;;;;;;;10.45;6.90;;;27.00;57.90;;;;;;6150445;28;81957;-56
2023/08/25 02:56:41;;;;;;;12.70;7.43;;;27.00;58.00;;;;;;6152095;28;82175;-56
2023/08/25 02:59:42;;;;;;;10.65;6.68;;;26.90;57.90;;;;;;6143114;28;82271;-56
2023/08/25 03:02:43;;;;;;;12.32;6.78;;;27.00;58.20;;;;;;6127465;28;83813;-57
2023/08/25 03:05:43;;;;;;;10.63;7.10;;;27.00;58.30;;;;;;6128988;28;81439;-56
2023/08/25 03:08:45;;;;;;;14.13;7.25;;;26.90;58.40;;;;;;6125660;28;83831;-58
2023/08/25 03:11:48;;;;;;;12.65;8.13;;;26.90;58.30;;;;;;6120458;28;83259;-58
2023/08/25 03:14:48;;;;;;;17.15;8.75;;;26.90;58.60;;;;;;6126162;28;81925;-58
2023/08/25 03:17:49;;;;;;;10.88;7.45;;;26.90;58.90;;;;;;6126581;28;83938;-67
2023/08/25 03:20:54;;;;;;;12.35;6.97;;;26.90;58.60;;;;;;6126464;28;81801;-65
2023/08/25 03:23:55;;;;;;;10.60;6.50;;;26.80;58.20;;;;;;6126898;28;83544;-67
2023/08/25 03:26:56;;;;;;;10.48;6.80;;;26.80;58.40;;;;;;6126483;28;83658;-67
2023/08/25 03:29:58;;;;;;;10.98;6.95;;;26.80;58.40;;;;;;6125774;28;80581;-66
2023/08/25 03:32:59;;;;;;;10.02;6.60;;;26.80;58.40;;;;;;6127980;28;80023;-65
2023/08/25 03:36:00;;;;;;;14.07;6.50;;;26.80;58.20;;;;;;6126636;28;84041;-64
2023/08/25 03:39:00;;;;;;;13.13;6.35;;;26.80;58.30;;;;;;6123146;28;83369;-63
2023/08/25 03:42:01;;;;;;;10.50;6.18;;;26.90;58.50;;;;;;6125408;28;83716;-67
2023/08/25 03:45:02;;;;;;;11.75;7.45;;;26.90;58.20;;;;;;6127150;28;80947;-68
2023/08/25 03:48:02;;;;;;;16.52;7.82;;;26.90;58.20;;;;;;6126033;28;84147;-67
2023/08/25 03:51:03;;;;;;;13.00;7.65;;;26.90;58.20;;;;;;6150284;28;84796;-63
2023/08/25 03:54:06;;;;;;;13.18;7.43;;;26.90;58.50;;;;;;6151701;28;80612;-64
2023/08/25 03:57:08;;;;;;;12.05;7.13;;;26.90;58.10;;;;;;6152767;28;81127;-64
2023/08/25 04:00:09;;;;;;;11.13;7.35;;;26.90;58.60;;;;;;6150326;28;82348;-65
2023/08/25 04:03:13;;;;;;;15.52;7.85;;;26.90;58.40;;;;;;6151915;28;81615;-65
2023/08/25 04:06:13;;;;;;;10.68;6.88;;;26.90;58.50;;;;;;6148605;28;80965;-65
2023/08/25 04:09:14;;;;;;;12.27;7.10;;;26.90;58.50;;;;;;6148071;28;81746;-64
2023/08/25 04:12:14;;;;;;;10.75;7.18;;;26.90;58.60;;;;;;6149560;28;83788;-66
2023/08/25 04:15:15;;;;;;;12.13;7.55;;;26.90;58.60;;;;;;6151062;28;81233;-66
2023/08/25 04:18:15;;;;;;;11.18;6.95;;;26.90;58.60;;;;;;6148753;28;83171;-67
2023/08/25 04:21:16;;;;;;;9.98;6.57;;;26.90;58.20;;;;;;6150113;28;82080;-64
2023/08/25 04:24:17;;;;;;;10.18;7.18;;;26.90;58.30;;;;;;6150088;28;83179;-73
2023/08/25 04:27:18;;;;;;;13.10;6.97;;;26.90;58.60;;;;;;6150120;28;80808;-69
2023/08/25 04:30:22;;;;;;;14.77;7.47;;;26.80;58.70;;;;;;6151214;28;82128;-57
2023/08/25 04:33:23;;;;;;;11.67;7.67;;;26.90;58.60;;;;;;6136321;28;81753;-61
2023/08/25 04:36:24;;;;;;;15.50;9.65;;;26.90;58.90;;;;;;6127191;28;83216;-60
2023/08/25 04:39:25;;;;;;;23.20;8.65;;;26.80;58.50;;;;;;6122642;28;81703;-61
2023/08/25 04:42:26;;;;;;;15.20;8.35;;;26.70;58.90;;;;;;6136371;28;80971;-59
2023/08/25 04:45:27;;;;;;;13.48;8.48;;;26.60;59.70;;;;;;6131435;28;83395;-59
2023/08/25 04:48:28;;;;;;;13.73;9.23;;;26.50;60.00;;;;;;6154700;28;82536;-59
2023/08/25 04:51:28;;;;;;;16.25;9.40;;;26.40;60.80;;;;;;6151536;28;83988;-58
2023/08/25 04:54:29;;;;;;;15.73;8.60;;;26.40;60.60;;;;;;6151170;28;84259;-57
2023/08/25 04:57:30;;;;;;;21.80;10.35;;;26.30;61.20;;;;;;6153459;28;83425;-58
2023/08/25 05:00:30;;;;;;;23.63;12.48;;;26.30;61.50;;;;;;6140904;28;83504;-59
2023/08/25 05:03:31;;;;;;;27.27;15.65;;;26.20;61.80;;;;;;6148222;28;85697;-57
2023/08/25 05:06:32;;;;;;;30.67;15.85;;;26.20;62.60;;;;;;6147672;28;85827;-66
2023/08/25 05:09:34;;;;;;;25.02;14.20;;;26.20;62.10;;;;;;6148211;28;86159;-68
2023/08/25 05:12:34;;;;;;;24.40;13.07;;;26.10;62.40;;;;;;6143805;28;83418;-66
2023/08/25 05:15:35;;;;;;;26.33;12.10;;;26.10;62.50;;;;;;6144499;28;84063;-66
2023/08/25 05:18:37;;;;;;;19.95;11.10;;;26.10;62.30;;;;;;6147192;28;85831;-67
2023/08/25 05:21:37;;;;;;;29.00;12.75;;;26.10;62.20;;;;;;6142932;28;86444;-64
2023/08/25 05:24:39;;;;;;;18.35;11.05;;;26.10;62.20;;;;;;6150355;28;85881;-66
2023/08/25 05:27:40;;;;;;;18.35;9.82;;;26.10;62.00;;;;;;6152305;28;82948;-66
2023/08/25 05:30:41;;;;;;;19.80;9.85;;;26.20;62.80;;;;;;6153270;28;83001;-63
2023/08/25 05:33:41;;;;;;;20.98;9.32;;;26.30;62.90;;;;;;6144628;28;83260;-67
2023/08/25 05:37:00;;;;;;;14.43;9.15;;;26.40;63.00;;;;;;6143517;28;81415;-65
2023/08/25 05:40:01;;;;;;;21.77;8.70;;;26.50;62.50;;;;;;6140053;28;83068;-72
2023/08/25 05:43:04;;;;;;;22.17;9.02;;;26.60;62.50;;;;;;6152982;28;81498;-55
2023/08/25 05:46:05;;;;;;;14.57;8.73;;;26.70;62.40;;;;;;6154587;28;80912;-57
2023/08/25 05:49:05;;;;;;;20.85;8.95;;;26.70;62.30;;;;;;6133129;28;87929;-54
2023/08/25 05:52:06;;;;;;;15.73;8.60;;;26.70;61.90;;;;;;6139338;28;81829;-57
2023/08/25 05:55:06;;;;;;;12.27;7.97;;;26.80;62.40;;;;;;6123558;28;83334;-56
2023/08/25 05:58:07;;;;;;;14.60;8.73;;;26.70;62.20;;;;;;6024252;28;82336;-57
2023/08/25 06:01:07;;;;;;;12.95;8.23;;;26.70;61.90;;;;;;6029825;28;82197;-58
2023/08/25 06:04:08;;;;;;;17.48;8.23;;;26.70;61.80;;;;;;6055894;28;81916;-55
2023/08/25 06:07:09;;;;;;;13.93;7.22;;;26.70;61.60;;;;;;6126388;28;81191;-56
2023/08/25 06:10:09;;;;;;;14.23;7.45;;;26.80;61.80;;;;;;6149198;28;80491;-50
2023/08/25 06:13:10;;;;;;;15.35;8.02;;;26.80;61.80;;;;;;6153160;28;81084;-55
2023/08/25 06:16:10;;;;;;;14.32;7.07;;;26.70;61.90;;;;;;6151543;28;81188;-57
2023/08/25 06:19:11;;;;;;;19.70;8.13;;;26.70;61.50;;;;;;6134506;28;83287;-59
2023/08/25 06:22:11;;;;;;;24.95;7.43;;;26.80;61.50;;;;;;6141605;28;80239;-57
2023/08/25 06:25:12;;;;;;;11.65;7.65;;;26.80;61.50;;;;;;6140741;28;80849;-57
2023/08/25 06:28:12;;;;;;;13.65;7.43;;;26.80;61.70;;;;;;6147996;28;81194;-57
2023/08/25 06:31:13;;;;;;;15.15;7.47;;;26.90;61.60;;;;;;6141589;28;80506;-58
2023/08/25 06:34:14;;;;;;;13.18;7.53;;;26.90;62.00;;;;;;6143415;28;82473;-58
2023/08/25 06:37:14;;;;;;;14.75;7.03;;;26.90;61.80;;;;;;6145061;28;80549;-57
2023/08/25 06:40:15;;;;;;;10.70;7.07;;;26.90;61.80;;;;;;6152216;28;80835;-69
2023/08/25 06:43:15;;;;;;;10.15;6.72;;;26.90;61.80;;;;;;6148672;28;82681;-68
2023/08/25 06:46:16;;;;;;;13.95;7.38;;;26.90;61.50;;;;;;6149454;28;80805;-74
2023/08/25 06:49:16;;;;;;;9.13;6.43;;;26.90;61.50;;;;;;6152853;28;80372;-70
2023/08/25 06:52:17;;;;;;;11.88;6.78;;;26.90;61.70;;;;;;6149033;28;82681;-70
2023/08/25 06:55:18;;;;;;;10.90;6.72;;;26.90;62.00;;;;;;6152516;28;81711;-74
2023/08/25 06:58:18;;;;;;;10.45;6.90;;;26.90;61.90;;;;;;6147430;28;82561;-58
2023/08/25 07:01:19;;;;;;;11.98;6.72;;;26.90;61.70;;;;;;6151947;28;80274;-57
2023/08/25 07:04:19;;;;;;;13.52;7.22;;;27.00;61.80;;;;;;6148246;28;80614;-57
2023/08/25 07:07:20;;;;;;;18.40;6.70;;;27.00;62.20;;;;;;6150630;28;80778;-59
2023/08/25 07:10:21;;;;;;;10.07;6.88;;;27.00;62.00;;;;;;6149018;28;83229;-56
2023/08/25 07:13:21;;;;;;;11.73;6.38;;;27.00;62.40;;;;;;6150173;28;80515;-59
2023/08/25 07:16:22;;;;;;;20.90;7.45;;;27.00;62.50;;;;;;6150461;28;82275;-58
2023/08/25 07:19:22;;;;;;;15.00;7.07;;;27.00;62.50;;;;;;6151340;28;81239;-54
2023/08/25 07:22:23;;;;;;;16.83;7.00;;;27.00;62.50;;;;;;6147323;28;80944;-57
2023/08/25 07:25:23;;;;;;;18.50;7.25;;;27.10;62.50;;;;;;6151795;28;80889;-52
2023/08/25 07:28:24;;;;;;;15.48;7.75;;;27.10;62.50;;;;;;6141631;28;81978;-55
2023/08/25 07:31:24;;;;;;;11.50;7.47;;;27.10;62.80;;;;;;6139032;28;81341;-57
2023/08/25 07:34:25;;;;;;;16.05;7.70;;;27.20;63.10;;;;;;6141893;28;80799;-71
2023/08/25 07:37:25;;;;;;;13.80;6.22;;;27.20;63.50;;;;;;6141828;28;80511;-69
2023/08/25 07:40:26;;;;;;;13.65;7.25;;;27.20;63.30;;;;;;6143881;28;80529;-68
2023/08/25 07:43:26;;;;;;;17.38;6.93;;;27.20;63.40;;;;;;6147804;28;81521;-63
2023/08/25 07:46:27;;;;;;;14.88;7.47;;;27.20;63.50;;;;;;6147578;28;83935;-70
2023/08/25 07:49:28;;;;;;;12.55;6.85;;;27.20;64.10;;;;;;6150837;28;80885;-69
2023/08/25 07:52:28;;;;;;;13.60;7.03;;;27.20;64.10;;;;;;6141759;28;80441;-57
2023/08/25 07:55:29;;;;;;;12.38;6.80;;;27.30;64.20;;;;;;6147397;28;81533;-55
2023/08/25 07:58:29;;;;;;;15.02;7.18;;;27.30;64.20;;;;;;6145669;28;80554;-56
2023/08/25 08:01:30;;;;;;;14.35;7.40;;;27.30;64.30;;;;;;6145163;28;81762;-57
2023/08/25 08:04:31;;;;;;;10.88;6.22;;;27.30;65.10;;;;;;6151015;28;80986;-56
2023/08/25 08:07:32;;;;;;;11.48;6.55;;;27.30;64.60;;;;;;6146741;28;81051;-56
2023/08/25 08:10:32;;;;;;;22.45;6.70;;;27.30;65.00;;;;;;6147588;28;80654;-68
2023/08/25 08:13:34;;;;;;;13.35;7.10;;;27.30;64.90;;;;;;6141314;28;88028;-66
2023/08/25 08:16:35;;;;;;;18.40;7.07;;;27.30;64.90;;;;;;6119185;28;84575;-68
2023/08/25 08:19:36;;;;;;;9.27;6.43;;;27.30;64.90;;;;;;6151265;28;80369;-66
2023/08/25 08:22:36;;;;;;;17.45;8.82;;;27.30;64.90;;;;;;6136125;28;80766;-64
2023/08/25 08:25:37;;;;;;;29.45;11.80;;;27.30;65.70;;;;;;6140525;28;80705;-71
2023/08/25 08:28:37;;;;;;;24.48;11.88;;;27.30;65.90;;;;;;6147076;28;83453;-66
2023/08/25 08:31:38;;;;;;;23.88;8.73;;;27.30;66.80;;;;;;6142823;28;89264;-76
2023/08/25 08:34:38;;;;;;;27.10;9.35;;;27.30;66.90;;;;;;6151135;28;82942;-71
2023/08/25 08:37:39;;;;;;;19.40;7.20;;;27.30;67.00;;;;;;6150963;28;80339;-73
2023/08/25 08:40:40;;;;;;;24.40;8.27;;;27.20;66.70;;;;;;6146735;28;80553;-72
2023/08/25 08:43:42;;;;;;;13.98;7.65;;;27.20;66.70;;;;;;6144635;28;81225;-70
2023/08/25 08:46:43;;;;;;;19.65;7.75;;;27.30;66.80;;;;;;6147097;28;83089;-75
2023/08/25 08:49:44;;;;;;;19.83;7.15;;;27.30;67.00;;;;;;6150519;28;80941;-76
2023/08/25 08:52:44;;;;;;;16.50;7.65;;;27.30;67.30;;;;;;6149877;28;80471;-68
2023/08/25 08:55:46;;;;;;;20.33;8.93;;;27.20;67.00;;;;;;6150276;28;81523;-69
2023/08/25 08:58:47;;;;;;;22.60;7.35;;;27.20;67.10;;;;;;6151537;28;81001;-72
2023/08/25 09:01:47;;;;;;;14.90;7.40;;;27.30;67.00;;;;;;6150909;28;80560;-71
2023/08/25 09:04:48;;;;;;;20.45;7.75;;;27.30;67.10;;;;;;6145173;28;80840;-55
2023/08/25 09:07:48;;;;;;;18.67;8.70;;;27.30;67.20;;;;;;6145368;28;81443;-54
2023/08/25 09:10:49;;;;;;;20.60;7.47;;;27.30;67.20;;;;;;6150767;28;82308;-58
2023/08/25 09:13:49;;;;;;;14.20;7.43;;;27.30;68.00;;;;;;6131102;28;82503;-58
2023/08/25 09:16:50;;;;;;;15.63;7.95;;;27.30;68.80;;;;;;6143851;28;80261;-58
2023/08/25 09:19:50;;;;;;;15.85;6.63;;;27.30;68.30;;;;;;6141969;28;81116;-55
2023/08/25 09:22:51;;;;;;;12.55;6.93;;;27.20;67.20;;;;;;6147905;28;81293;-69
2023/08/25 09:25:53;;;;;;;10.85;6.25;;;27.30;67.00;;;;;;6146976;28;81575;-59
2023/08/25 09:28:53;;;;;;;11.93;6.80;;;27.30;66.20;;;;;;6140392;28;82345;-59
2023/08/25 09:31:54;;;;;;;9.60;6.65;;;27.40;65.90;;;;;;6132741;28;83204;-58
2023/08/25 09:34:55;;;;;;;9.93;5.97;;;27.50;65.50;;;;;;6144691;28;80285;-57
2023/08/25 09:37:56;;;;;;;12.35;6.45;;;27.60;65.70;;;;;;6153168;28;81454;-57
2023/08/25 09:40:58;;;;;;;11.57;6.97;;;27.70;66.60;;;;;;6152393;28;82352;-57
2023/08/25 09:43:58;;;;;;;17.00;7.38;;;27.80;66.50;;;;;;6145206;28;82535;-74
2023/08/25 09:46:59;;;;;;;9.38;6.95;;;27.90;66.40;;;;;;6154666;28;81322;-70
2023/08/25 09:49:59;;;;;;;9.02;7.07;;;27.90;66.30;;;;;;6153567;28;82058;-73
2023/08/25 09:53:00;;;;;;;11.10;7.13;;;27.90;65.60;;;;;;6153734;28;80574;-68
2023/08/25 09:56:01;;;;;;;9.35;6.70;;;27.90;65.00;;;;;;6154265;28;80492;-71
2023/08/25 09:59:01;;;;;;;10.02;6.93;;;27.90;64.90;;;;;;6155899;28;81703;-72
2023/08/25 10:02:02;;;;;;;9.93;7.07;;;28.00;65.70;;;;;;6154412;28;80676;-74
2023/08/25 10:05:03;;;;;;;15.27;8.48;;;28.00;65.60;;;;;;6155615;28;80616;-74
2023/08/25 10:08:03;;;;;;;14.52;7.40;;;28.10;65.60;;;;;;6155908;28;80501;-74
2023/08/25 10:11:04;;;;;;;14.13;7.32;;;28.10;65.90;;;;;;6152998;28;80465;-70
2023/08/25 10:14:04;;;;;;;12.68;7.38;;;28.10;65.90;;;;;;6155458;28;80836;-73
2023/08/25 10:17:05;;;;;;;14.82;8.13;;;28.20;66.20;;;;;;6154899;28;82597;-71
2023/08/25 10:20:05;;;;;;;12.30;7.28;;;28.30;66.40;;;;;;6154525;28;82791;-57
2023/08/25 10:23:08;;;;;;;10.93;6.93;;;28.30;65.60;;;;;;6154432;28;80907;-59
2023/08/25 10:26:09;;;;;;;11.82;7.65;;;28.30;65.00;;;;;;6151809;28;80538;-58
2023/08/25 10:29:10;;;;;;;21.70;7.47;;;28.30;65.20;;;;;;6152692;28;80713;-57
2023/08/25 10:32:10;;;;;;;11.88;7.28;;;28.00;62.90;;;;;;6153653;28;80578;-58
2023/08/25 10:35:11;;;;;;;14.15;7.32;;;27.60;61.70;;;;;;6152789;28;84346;-59
2023/08/25 10:38:11;;;;;;;8.52;6.90;;;27.30;61.00;;;;;;6151740;28;81780;-56
2023/08/25 10:41:13;;;;;;;10.90;6.72;;;27.00;59.30;;;;;;6150608;28;83535;-57
2023/08/25 10:44:13;;;;;;;8.05;6.15;;;26.80;58.60;;;;;;6151032;28;80334;-58
2023/08/25 10:47:13;;;;;;;10.50;6.68;;;26.70;58.40;;;;;;6150028;28;80184;-57
2023/08/25 10:50:14;;;;;;;11.18;6.80;;;26.70;58.30;;;;;;6144971;28;83455;-59
2023/08/25 10:53:14;;;;;;;8.63;6.57;;;26.60;58.30;;;;;;6137714;28;81404;-59
2023/08/25 10:56:15;;;;;;;12.85;7.40;;;26.60;64.80;;;;;;6152167;28;83260;-61
2023/08/25 10:59:16;;;;;;;9.43;6.70;;;26.80;65.50;;;;;;6150613;28;80354;-59
2023/08/25 11:02:16;;;;;;;10.10;6.80;;;27.00;66.00;;;;;;6152476;28;82834;-59
2023/08/25 11:05:17;;;;;;;7.65;6.40;;;27.10;66.40;;;;;;6149371;28;80694;-59
2023/08/25 11:08:17;;;;;;;16.60;7.20;;;27.30;66.40;;;;;;6147830;28;80148;-61
2023/08/25 11:11:19;;;;;;;11.48;6.97;;;27.40;66.60;;;;;;6154990;28;80941;-58
2023/08/25 11:14:19;;;;;;;13.20;7.45;;;27.50;66.60;;;;;;6149823;28;83206;-59
2023/08/25 11:17:20;;;;;;;11.60;6.88;;;27.60;66.10;;;;;;6151959;28;81328;-61
2023/08/25 11:20:21;;;;;;;10.13;7.18;;;27.70;65.80;;;;;;6152997;28;80583;-60
2023/08/25 11:23:22;;;;;;;11.32;6.85;;;27.70;65.20;;;;;;6149154;28;80347;-59
2023/08/25 11:26:23;;;;;;;10.98;6.32;;;27.90;64.80;;;;;;6153974;28;80405;-58
2023/08/25 11:29:23;;;;;;;9.88;7.25;;;28.00;64.30;;;;;;6145688;28;81141;-60
2023/08/25 11:32:24;;;;;;;9.60;7.10;;;28.00;64.40;;;;;;6145149;28;80285;-66
2023/08/25 11:35:24;;;;;;;10.63;7.60;;;28.10;64.70;;;;;;6152992;28;80614;-68
2023/08/25 11:38:25;;;;;;;9.80;7.10;;;28.10;64.50;;;;;;6142953;28;81075;-66
2023/08/25 11:41:27;;;;;;;12.32;6.68;;;28.20;64.50;;;;;;6153965;28;80407;-64
2023/08/25 11:44:28;;;;;;;11.57;7.38;;;28.30;65.10;;;;;;6152035;28;80639;-64
2023/08/25 11:47:28;;;;;;;9.38;6.55;;;28.30;65.30;;;;;;6152313;28;80369;-66
2023/08/25 11:50:29;;;;;;;11.13;7.20;;;28.30;65.40;;;;;;6143544;28;82559;-54
2023/08/25 11:53:30;;;;;;;13.27;7.53;;;28.40;65.10;;;;;;6151477;28;80513;-57
2023/08/25 11:56:30;;;;;;;12.75;7.40;;;28.40;65.10;;;;;;6151888;28;81616;-50
2023/08/25 11:59:31;;;;;;;10.80;7.20;;;28.40;65.00;;;;;;6151598;28;80739;-54
2023/08/25 12:02:31;;;;;;;8.77;7.30;;;28.50;65.20;;;;;;6148327;28;82788;-53
2023/08/25 12:05:32;;;;;;;11.18;7.90;;;28.50;65.30;;;;;;6148578;28;80426;-56
2023/08/25 12:08:33;;;;;;;10.70;7.50;;;28.50;65.50;;;;;;6153298;28;80395;-64
2023/08/25 12:11:33;;;;;;;10.13;7.70;;;28.60;66.30;;;;;;6153052;28;80542;-65
2023/08/25 12:14:34;;;;;;;13.55;8.25;;;28.40;65.80;;;;;;6152151;28;80836;-66
2023/08/25 12:17:34;;;;;;;11.70;8.02;;;27.90;63.80;;;;;;6152541;28;83604;-65
2023/08/25 12:20:35;;;;;;;11.75;8.32;;;27.60;62.50;;;;;;6150724;28;82390;-64
2023/08/25 12:23:35;;;;;;;11.93;7.75;;;27.40;61.40;;;;;;6150255;28;80361;-65
2023/08/25 12:26:36;;;;;;;11.63;7.68;;;27.20;61.00;;;;;;6149884;28;80238;-64
2023/08/25 12:29:36;;;;;;;11.70;7.53;;;27.00;60.60;;;;;;6150515;28;81184;-65
2023/08/25 12:32:37;;;;;;;15.38;8.63;;;26.90;59.80;;;;;;6150720;28;80631;-60
2023/08/25 12:35:37;;;;;;;10.98;7.70;;;27.10;67.00;;;;;;6151958;28;81374;-60
2023/08/25 12:38:38;;;;;;;14.85;8.10;;;27.40;67.60;;;;;;6151279;28;83153;-61
2023/08/25 12:41:38;;;;;;;10.80;7.20;;;27.50;67.80;;;;;;6153062;28;80965;-59
2023/08/25 12:44:39;;;;;;;10.55;7.65;;;27.60;67.50;;;;;;6151323;28;80917;-60
2023/08/25 12:47:39;;;;;;;12.48;7.80;;;27.70;67.50;;;;;;6150691;28;81663;-59
2023/08/25 12:50:40;;;;;;;15.68;7.80;;;27.80;68.00;;;;;;6148205;28;80508;-59
2023/08/25 12:53:40;;;;;;;11.68;7.97;;;27.90;67.90;;;;;;6149449;28;81490;-60
2023/08/25 12:56:41;;;;;;;12.27;7.93;;;28.00;68.90;;;;;;6143917;28;81304;-60
2023/08/25 12:59:41;;;;;;;10.88;7.13;;;28.10;69.00;;;;;;6151278;28;81640;-60
2023/08/25 13:02:42;;;;;;;10.18;8.02;;;28.10;68.80;;;;;;6152525;28;82679;-59
2023/08/25 13:05:43;;;;;;;9.93;7.50;;;28.10;67.90;;;;;;6155594;28;80195;-51
2023/08/25 13:08:43;;;;;;;14.50;8.15;;;28.20;68.40;;;;;;6152133;28;80519;-53
2023/08/25 13:11:44;;;;;;;11.77;7.70;;;28.30;68.80;;;;;;6153225;28;80735;-53
2023/08/25 13:14:44;;;;;;;12.07;8.65;;;28.30;68.50;;;;;;6154178;28;81244;-53
2023/08/25 13:17:45;;;;;;;10.27;8.10;;;28.30;69.80;;;;;;6151536;28;80575;-52
2023/08/25 13:20:45;;;;;;;16.67;8.32;;;28.40;67.50;;;;;;6154068;28;81290;-53
2023/08/25 13:23:46;;;;;;;12.95;8.30;;;28.50;67.50;;;;;;6153172;28;81929;-68
2023/08/25 13:26:46;;;;;;;11.60;8.05;;;28.50;67.50;;;;;;6167947;28;81463;-62
2023/08/25 13:29:47;;;;;;;12.63;8.77;;;28.50;67.20;;;;;;6156072;28;80682;-69
2023/08/25 13:32:47;;;;;;;9.85;8.13;;;28.50;67.70;;;;;;6149906;28;81789;-64
2023/08/25 13:35:54;;;;;;;11.30;7.97;;;28.50;68.50;;;;;;6153195;28;80452;-65
2023/08/25 13:38:55;;;;;;;14.35;9.40;;;28.50;67.40;;;;;;6154531;28;80886;-66
2023/08/25 13:41:55;;;;;;;14.55;8.88;;;28.60;67.40;;;;;;6152210;28;80422;-59
2023/08/25 13:44:56;;;;;;;12.10;8.75;;;28.60;67.20;;;;;;6155935;28;81022;-59
2023/08/25 13:47:56;;;;;;;11.93;8.40;;;28.60;67.00;;;;;;6152514;28;81516;-59
2023/08/25 13:50:57;;;;;;;12.48;8.27;;;28.70;67.20;;;;;;6149655;28;83107;-60
2023/08/25 13:53:57;;;;;;;14.65;8.00;;;28.70;67.20;;;;;;6153519;28;80651;-60
2023/08/25 13:56:58;;;;;;;12.63;8.20;;;28.70;67.00;;;;;;6167072;28;80205;-58
2023/08/25 13:59:58;;;;;;;15.07;8.27;;;28.70;66.80;;;;;;6154745;28;80726;-59
2023/08/25 14:03:00;;;;;;;11.60;8.43;;;28.70;68.10;;;;;;6151372;28;80607;-57
2023/08/25 14:06:01;;;;;;;13.48;8.38;;;28.70;67.50;;;;;;6151120;28;82660;-58
2023/08/25 14:09:01;;;;;;;12.15;8.82;;;28.70;68.90;;;;;;6147674;28;84915;-58
2023/08/25 14:12:02;;;;;;;12.20;8.43;;;28.70;68.50;;;;;;6152072;28;81771;-59
2023/08/25 14:15:02;;;;;;;12.40;8.02;;;28.70;67.80;;;;;;6151984;28;80224;-58
2023/08/25 14:18:02;;;;;;;11.02;7.88;;;28.70;68.00;;;;;;6152393;28;83868;-60
2023/08/25 14:21:03;;;;;;;15.15;8.27;;;28.70;68.10;;;;;;6153958;28;80395;-58
2023/08/25 14:24:04;;;;;;;20.88;9.68;;;28.70;68.00;;;;;;6154686;28;80360;-59
2023/08/25 14:27:04;;;;;;;10.38;8.07;;;28.70;68.00;;;;;;6153992;28;80827;-60
2023/08/25 14:30:05;;;;;;;14.90;9.50;;;28.70;67.70;;;;;;6153720;28;81154;-62
2023/08/25 14:33:05;;;;;;;14.00;8.90;;;28.70;67.70;;;;;;6146500;28;80339;-59
2023/08/25 14:36:06;;;;;;;15.25;9.15;;;28.60;67.70;;;;;;6154107;28;80820;-61
2023/08/25 14:39:06;;;;;;;12.48;8.82;;;28.70;67.80;;;;;;6153566;28;86971;-65
2023/08/25 14:42:07;;;;;;;12.35;8.75;;;28.70;67.60;;;;;;6153595;28;80298;-65
2023/08/25 14:45:08;;;;;;;12.27;8.23;;;28.60;67.60;;;;;;6153275;28;80492;-65
2023/08/25 14:48:08;;;;;;;13.82;8.93;;;28.60;67.40;;;;;;6154776;28;80506;-59
2023/08/25 14:51:09;;;;;;;16.33;8.82;;;28.60;67.70;;;;;;6147337;28;80195;-61
2023/08/25 14:54:10;;;;;;;10.35;8.32;;;28.60;67.60;;;;;;6154479;28;80670;-58
2023/08/25 14:57:10;;;;;;;11.20;8.70;;;28.60;67.90;;;;;;6151553;28;81439;-64
2023/08/25 15:00:11;;;;;;;13.20;8.65;;;28.60;68.10;;;;;;6152797;28;81442;-62
2023/08/25 15:03:11;;;;;;;15.45;8.85;;;28.60;68.30;;;;;;6151991;28;82107;-59
2023/08/25 15:06:12;;;;;;;13.43;9.80;;;28.60;68.50;;;;;;6152604;28;80987;-61
2023/08/25 15:09:12;;;;;;;16.80;9.45;;;28.60;68.30;;;;;;6148974;28;80671;-59
2023/08/25 15:12:13;;;;;;;12.70;8.65;;;28.60;68.40;;;;;;6153011;28;81997;-59
2023/08/25 15:15:13;;;;;;;11.00;8.15;;;28.60;68.50;;;;;;6152241;28;83619;-60
2023/08/25 15:18:14;;;;;;;19.00;9.85;;;28.60;68.90;;;;;;6152537;28;80158;-60
2023/08/25 15:21:14;;;;;;;11.82;8.65;;;28.60;68.60;;;;;;6152509;28;80586;-60
2023/08/25 15:24:15;;;;;;;13.32;8.88;;;28.60;68.50;;;;;;6153061;28;80979;-60
2023/08/25 15:27:15;;;;;;;14.88;9.57;;;28.60;69.00;;;;;;6148359;28;88503;-62
2023/08/25 15:30:16;;;;;;;15.57;9.77;;;28.60;68.70;;;;;;6152687;28;82496;-60